Muncy, Pennsylvania
Current Conditions -  °F | °C
As of 9:16 AM on Wednesday 26 Nov 2014 (Local Time) from KIPT Reporting Station
Light Snow Light Snow  
Wind Chill: 33°   Ceiling: 2900
Heat Index: 37°   Visibility: 2mi
Dew Point: 27°   Wind: 5mph
Humidity: 67%   Direction: 50°NE
Pressure: 30.12"   Gusts: NA
Location:  41.21°N, 76.79°W
Report Text: KIPT 261416Z 05004KT 2SM -SN OVC029 03/M03 A3012 RMK AO2 SNB16 P0000 T00281028
Loading
Personal Weather Stations






























Interactive Weather Map New forecast layout! Learn more

10-Day Weather Forecast

Advertisements
Track Severe Weather on mobile